This is the latest recevied weather packets stored in our database for station/object W0DP. If no packets are shown the sender has not sent any weather packets the latest 10 day(s).
| Time | Temp. | Humidity | Pressure | Rain* | Wind** | Luminosity | Snow |
|---|---|---|---|---|---|---|---|
| 1777269637 | 17.78° C | 76% | 1007.4 hPa | 0 mm | - | - | - |
| 1777269017 | 17.78° C | 75% | 1007.3 hPa | 0 mm | - | - | - |
| 1777267237 | 18.33° C | 74% | 1007.5 hPa | 0 mm | - | - | - |
| 1777264817 | 18.89° C | 72% | 1007.7 hPa | 0 mm | - | - | - |
| 1777262437 | 20° C | 68% | 1008.1 hPa | 0 mm | - | - | - |
| 1777261817 | 20° C | 68% | 1008 hPa | 0 mm | - | - | - |
| 1777257616 | 19.44° C | 71% | 1008.6 hPa | 0 mm | - | - | - |
| 1777256416 | 19.44° C | 73% | 1009 hPa | 0 mm | - | - | - |
| 1777252816 | 20° C | 71% | 1009 hPa | 0 mm | - | - | - |
| 1777247416 | 22.22° C | 64% | 1009.1 hPa | 0 mm | - | - | - |
| 1777241416 | 22.78° C | 63% | 1010.2 hPa | 0 mm | - | - | - |
| 1777233015 | 22.78° C | 58% | 1012.2 hPa | 0 mm | - | - | - |
| 1777228817 | 19.44° C | 57% | 1013.2 hPa | 0 mm | - | - | - |
| 1777220417 | 18.33° C | 63% | 1015 hPa | 0 mm | - | - | - |
| 1777218617 | 16.11° C | 72% | 1015.1 hPa | 0 mm | - | - | - |
| 1777211416 | 16.11° C | 66% | 1016.1 hPa | 0 mm | - | - | - |
| 1777207216 | 12.78° C | 77% | 1015.9 hPa | 0 mm | - | - | - |
| 1777205436 | 12.22° C | 76% | 1016.2 hPa | 0 mm | - | - | - |
| 1777204216 | 12.22° C | 76% | 1015.8 hPa | 0 mm | - | - | - |
| 1777198236 | 12.78° C | 75% | 1015.3 hPa | 0 mm | - | - | - |
| 1777196416 | 12.22° C | 75% | 1015.5 hPa | 0 mm | - | - | - |
| 1777194015 | 12.78° C | 78% | 1015.5 hPa | 0 mm | - | - | - |
| 1777191015 | 12.22° C | 80% | 1015.7 hPa | 0 mm | - | - | - |
| 1777190415 | 12.22° C | 79% | 1015.4 hPa | 0 mm | - | - | - |
| 1777189217 | 12.78° C | 74% | 1015.4 hPa | 0 mm | - | - | - |
* Rain latest hour (hover to see other rain measurements)
** Current wind speed in m/s (hover to see current wind gust speed)